Time;durP1;ratioP1;P1;durP2;ratioP2;P2;SDS_P1;SDS_P2;PMS_P1;PMS_P2;Temp;Humidity;BMP_temperature;BMP_pressure;BME280_temperature;BME280_humidity;BME280_pressure;Samples;Min_cycle;Max_cycle;Signal;HPM_P1;HPM_P2
2023/05/02 00:02:18;;;;;;;23.80;12.45;;;;;;;10.78;100.00;101794.78;5033250;28;20045;-59
2023/05/02 00:04:47;;;;;;;20.25;11.80;;;;;;;10.79;100.00;101789.44;5034393;28;20504;-59
2023/05/02 00:07:15;;;;;;;20.50;10.25;;;;;;;10.77;100.00;101787.81;5033415;28;20123;-59
2023/05/02 00:09:43;;;;;;;20.45;10.68;;;;;;;10.81;100.00;101802.50;5033218;28;20053;-59
2023/05/02 00:12:11;;;;;;;19.83;11.43;;;;;;;10.76;100.00;101794.88;5015376;28;20042;-60
2023/05/02 00:14:39;;;;;;;24.45;12.13;;;;;;;10.77;100.00;101793.06;5014678;28;20054;-60
2023/05/02 00:17:08;;;;;;;21.40;11.32;;;;;;;10.72;100.00;101797.75;5014625;28;20129;-60
2023/05/02 00:19:38;;;;;;;18.40;10.15;;;;;;;10.67;100.00;101795.31;5016432;28;20057;-60
2023/05/02 00:22:06;;;;;;;16.27;9.00;;;;;;;10.61;100.00;101790.38;5031660;28;20050;-60
2023/05/02 00:24:35;;;;;;;16.67;8.30;;;;;;;10.68;100.00;101796.19;5032904;28;20045;-60
2023/05/02 00:27:03;;;;;;;17.70;8.32;;;;;;;10.61;100.00;101801.75;5031826;28;20101;-59
2023/05/02 00:29:31;;;;;;;17.83;9.18;;;;;;;10.56;100.00;101798.50;5033002;28;20038;-60
2023/05/02 00:31:59;;;;;;;18.50;9.15;;;;;;;10.60;100.00;101802.66;5033838;28;20451;-60
2023/05/02 00:34:31;;;;;;;16.45;8.77;;;;;;;10.52;100.00;101798.72;5034580;28;20037;-61
2023/05/02 00:36:59;;;;;;;15.80;8.57;;;;;;;10.57;100.00;101805.47;5034310;28;20041;-60
2023/05/02 00:39:27;;;;;;;13.60;7.47;;;;;;;10.56;100.00;101809.00;5032158;28;20072;-60
2023/05/02 00:41:59;;;;;;;16.25;8.18;;;;;;;10.57;100.00;101804.63;5025278;28;20096;-60
2023/05/02 00:44:27;;;;;;;16.58;8.27;;;;;;;10.54;100.00;101807.38;5013006;28;20436;-60
2023/05/02 00:46:55;;;;;;;17.77;8.95;;;;;;;10.53;100.00;101809.16;5013821;28;20046;-60
2023/05/02 00:49:24;;;;;;;19.38;9.23;;;;;;;10.58;100.00;101807.16;5013578;28;20067;-60
2023/05/02 00:51:53;;;;;;;17.00;9.60;;;;;;;10.60;100.00;101805.28;5024675;28;20488;-60
2023/05/02 00:54:21;;;;;;;18.98;9.60;;;;;;;10.55;100.00;101809.09;5032960;28;20076;-59
2023/05/02 00:56:52;;;;;;;17.70;8.73;;;;;;;10.58;100.00;101812.44;5033292;28;20116;-59
2023/05/02 00:59:21;;;;;;;16.85;9.00;;;;;;;10.57;100.00;101813.34;5030921;28;20050;-58
2023/05/02 01:02:00;;;;;;;18.80;9.88;;;;;;;10.58;100.00;101814.19;5031789;28;20091;-58
2023/05/02 01:04:38;;;;;;;19.70;10.38;;;;;;;10.51;100.00;101808.38;5032651;28;20443;-58
2023/05/02 01:07:21;;;;;;;18.27;9.55;;;;;;;10.48;100.00;101813.78;5012324;28;20516;-59
2023/05/02 01:10:01;;;;;;;17.80;10.35;;;;;;;10.58;100.00;101817.69;5012609;28;20049;-59
2023/05/02 01:12:38;;;;;;;16.05;9.23;;;;;;;10.62;100.00;101811.34;5012853;28;20038;-61
2023/05/02 01:15:10;;;;;;;19.23;10.27;;;;;;;10.67;100.00;101813.72;5012235;28;20038;-60
2023/05/02 01:17:40;;;;;;;15.40;9.45;;;;;;;10.68;100.00;101817.25;5012084;28;20468;-60
2023/05/02 01:20:14;;;;;;;18.83;10.13;;;;;;;10.78;100.00;101810.56;5009723;28;20042;-60
2023/05/02 01:22:44;;;;;;;16.73;9.63;;;;;;;10.67;100.00;101811.09;5011708;28;20528;-59
2023/05/02 01:25:21;;;;;;;16.23;8.85;;;;;;;10.61;100.00;101816.69;5011620;28;20052;-60
2023/05/02 01:28:00;;;;;;;18.52;10.18;;;;;;;10.60;100.00;101818.44;5023702;28;20053;-60
2023/05/02 01:30:34;;;;;;;15.73;9.43;;;;;;;10.62;100.00;101816.59;5031520;28;20096;-59
2023/05/02 01:33:04;;;;;;;17.77;10.02;;;;;;;10.58;100.00;101817.69;5032118;28;20434;-60
2023/05/02 01:35:35;;;;;;;18.08;10.18;;;;;;;10.69;100.00;101825.06;5031740;28;20057;-59
2023/05/02 01:38:05;;;;;;;18.15;9.55;;;;;;;10.69;100.00;101824.19;5029912;28;20049;-59
2023/05/02 01:40:37;;;;;;;17.77;11.00;;;;;;;10.64;100.00;101832.31;5031099;28;20076;-60
2023/05/02 01:43:07;;;;;;;20.08;10.48;;;;;;;10.62;100.00;101828.88;5032738;28;20080;-60
2023/05/02 01:45:39;;;;;;;21.70;11.13;;;;;;;10.61;100.00;101832.47;5032894;28;20516;-60
2023/05/02 01:48:09;;;;;;;19.97;11.07;;;;;;;10.58;100.00;101829.97;5032501;28;20053;-60
2023/05/02 01:50:43;;;;;;;20.10;11.35;;;;;;;10.58;100.00;101836.09;5031939;28;20049;-60
2023/05/02 01:53:13;;;;;;;22.58;12.23;;;;;;;10.54;100.00;101828.41;5031827;28;20136;-60
2023/05/02 01:55:44;;;;;;;22.55;11.45;;;;;;;10.60;100.00;101836.88;5031328;28;20048;-60
2023/05/02 01:58:15;;;;;;;24.55;12.35;;;;;;;10.49;100.00;101831.28;5020715;28;20564;-60
2023/05/02 02:00:46;;;;;;;23.20;11.85;;;;;;;10.51;100.00;101847.00;5011322;28;20052;-60
2023/05/02 02:03:17;;;;;;;22.02;12.05;;;;;;;10.51;100.00;101844.34;5012564;28;20096;-60
2023/05/02 02:05:48;;;;;;;25.13;12.68;;;;;;;10.50;100.00;101846.16;5012940;28;20058;-60
2023/05/02 02:08:16;;;;;;;20.55;11.50;;;;;;;10.51;100.00;101847.81;5012622;28;20533;-59
2023/05/02 02:10:49;;;;;;;18.67;10.90;;;;;;;10.49;100.00;101842.66;5021284;28;20054;-60
2023/05/02 02:13:26;;;;;;;20.13;11.13;;;;;;;10.48;100.00;101853.25;5011572;28;20124;-60
2023/05/02 02:16:03;;;;;;;20.70;11.02;;;;;;;10.54;100.00;101846.84;5017137;28;20053;-59
2023/05/02 02:18:37;;;;;;;20.27;10.73;;;;;;;10.54;100.00;101844.19;5034724;28;20409;-60
2023/05/02 02:21:09;;;;;;;18.77;10.35;;;;;;;10.46;100.00;101844.59;5032907;28;20836;-51
2023/05/02 02:23:42;;;;;;;21.48;10.77;;;;;;;10.56;100.00;101848.47;5032605;28;20087;-53
2023/05/02 02:26:12;;;;;;;19.42;10.02;;;;;;;10.60;100.00;101851.81;5026956;28;20452;-55
2023/05/02 02:28:43;;;;;;;20.63;8.23;;;;;;;10.58;100.00;101862.41;5013079;28;20177;-53
2023/05/02 02:31:13;;;;;;;15.45;5.85;;;;;;;10.53;100.00;101864.41;5012463;28;20081;-53
2023/05/02 02:33:41;;;;;;;13.32;5.20;;;;;;;10.55;100.00;101875.72;5012896;28;20034;-53
2023/05/02 02:36:15;;;;;;;11.65;4.80;;;;;;;10.49;100.00;101876.00;5011470;28;20120;-54
2023/05/02 02:38:50;;;;;;;15.95;5.18;;;;;;;10.41;100.00;101881.63;5012971;28;20050;-54
2023/05/02 02:41:26;;;;;;;14.48;4.50;;;;;;;10.34;100.00;101884.59;5013224;28;20508;-52
2023/05/02 02:44:01;;;;;;;14.38;4.72;;;;;;;10.34;100.00;101892.50;5011937;28;20054;-53
2023/05/02 02:46:47;;;;;;;15.00;4.07;;;;;;;10.27;100.00;101900.66;5012296;28;20084;-53
2023/05/02 02:49:27;;;;;;;13.30;4.25;;;;;;;10.21;100.00;101903.59;5015167;28;20049;-53
2023/05/02 02:52:05;;;;;;;12.85;3.30;;;;;;;10.14;100.00;101910.03;5014166;28;20046;-53
2023/05/02 02:54:39;;;;;;;11.00;3.10;;;;;;;10.11;100.00;101904.94;5021823;28;20485;-52
2023/05/02 02:57:16;;;;;;;13.02;3.28;;;;;;;10.04;100.00;101904.34;5032904;28;20056;-55
2023/05/02 02:59:55;;;;;;;9.93;2.55;;;;;;;9.99;100.00;101903.69;5031807;28;20111;-55
2023/05/02 03:02:30;;;;;;;12.55;3.15;;;;;;;9.99;100.00;101906.34;5017360;28;20493;-53
2023/05/02 03:05:01;;;;;;;10.60;3.17;;;;;;;10.01;100.00;101915.00;5015020;28;20049;-53
2023/05/02 03:07:30;;;;;;;14.05;3.30;;;;;;;10.05;100.00;101915.72;5011758;28;20097;-54
2023/05/02 03:09:58;;;;;;;8.00;3.10;;;;;;;10.04;100.00;101919.28;5012635;28;20128;-53
2023/05/02 03:12:27;;;;;;;8.27;2.42;;;;;;;10.08;100.00;101918.22;5013795;28;20132;-55
2023/05/02 03:15:03;;;;;;;11.77;2.85;;;;;;;9.95;100.00;101918.78;5012882;28;20074;-53
2023/05/02 03:17:33;;;;;;;12.30;2.67;;;;;;;10.02;100.00;101927.25;5012416;28;20042;-52
2023/05/02 03:20:01;;;;;;;11.23;2.63;;;;;;;10.00;100.00;101930.84;5022525;28;20440;-59
2023/05/02 03:22:29;;;;;;;9.25;2.78;;;;;;;10.00;100.00;101938.75;5033611;28;20115;-60
2023/05/02 03:24:57;;;;;;;11.40;2.75;;;;;;;9.96;100.00;101949.38;5033002;28;20443;-59
2023/05/02 03:27:25;;;;;;;10.88;2.30;;;;;;;9.96;100.00;101941.50;5033546;28;20056;-60
2023/05/02 03:29:56;;;;;;;10.88;2.45;;;;;;;9.92;100.00;101939.06;5032707;28;20042;-60
2023/05/02 03:32:25;;;;;;;11.02;2.60;;;;;;;9.90;100.00;101947.03;5034026;28;20489;-59
2023/05/02 03:34:57;;;;;;;9.43;2.38;;;;;;;9.80;100.00;101950.97;5033706;28;20041;-61
2023/05/02 03:37:25;;;;;;;9.40;2.10;;;;;;;9.82;100.00;101943.91;5025140;28;20092;-59
2023/05/02 03:39:53;;;;;;;13.00;2.30;;;;;;;9.77;100.00;101956.38;5013862;28;20462;-60
2023/05/02 03:42:22;;;;;;;7.45;2.00;;;;;;;9.78;100.00;101963.34;5014259;28;20046;-59
2023/05/02 03:44:52;;;;;;;11.43;2.50;;;;;;;9.68;100.00;101973.41;5013716;28;20175;-59
2023/05/02 03:47:20;;;;;;;9.43;2.45;;;;;;;9.74;100.00;101972.28;5017550;28;20075;-60
2023/05/02 03:49:48;;;;;;;10.30;2.38;;;;;;;9.74;100.00;101967.88;5033293;28;20051;-59
2023/05/02 03:52:18;;;;;;;9.20;2.60;;;;;;;9.73;100.00;101971.41;5035303;28;20507;-60
2023/05/02 03:54:46;;;;;;;11.95;2.80;;;;;;;9.76;100.00;101971.31;5033037;28;20108;-59
2023/05/02 03:57:14;;;;;;;7.07;1.98;;;;;;;9.78;100.00;101979.09;5028494;28;20429;-59
2023/05/02 03:59:44;;;;;;;9.85;2.67;;;;;;;9.68;100.00;101983.03;5013660;28;20038;-60
2023/05/02 04:02:12;;;;;;;6.75;2.30;;;;;;;9.61;100.00;101982.44;5012013;28;20054;-59
2023/05/02 04:04:41;;;;;;;8.27;2.20;;;;;;;9.61;100.00;101978.06;5016920;28;20045;-60
2023/05/02 04:07:16;;;;;;;14.90;2.75;;;;;;;9.57;100.00;101984.38;5031552;28;20088;-60
2023/05/02 04:09:49;;;;;;;6.88;2.00;;;;;;;9.62;100.00;101990.25;5034503;28;20065;-60
2023/05/02 04:12:17;;;;;;;9.15;2.42;;;;;;;9.62;100.00;101986.78;5034102;28;20068;-60
2023/05/02 04:14:45;;;;;;;9.27;2.58;;;;;;;9.68;100.00;101989.16;5033169;28;20104;-59
2023/05/02 04:17:14;;;;;;;7.22;2.00;;;;;;;9.63;100.00;101996.38;5025051;28;20068;-59
2023/05/02 04:19:43;;;;;;;11.43;2.35;;;;;;;9.58;100.00;101999.19;5021000;28;20050;-59
2023/05/02 04:22:11;;;;;;;9.90;2.03;;;;;;;9.57;100.00;101992.25;5013033;28;20436;-60
2023/05/02 04:24:39;;;;;;;8.10;2.10;;;;;;;9.61;100.00;102001.72;5011972;28;20058;-60
2023/05/02 04:27:08;;;;;;;10.50;2.22;;;;;;;9.54;100.00;102002.88;5029364;28;20397;-60
2023/05/02 04:29:36;;;;;;;9.18;2.25;;;;;;;9.52;100.00;102002.09;5032854;28;20115;-59
2023/05/02 04:32:05;;;;;;;9.93;2.03;;;;;;;9.43;100.00;102015.59;5032446;28;20136;-60
2023/05/02 04:34:33;;;;;;;9.57;2.25;;;;;;;9.44;100.00;102017.31;5032402;28;20440;-60
2023/05/02 04:37:01;;;;;;;7.35;2.00;;;;;;;9.48;100.00;102029.41;5020821;28;20104;-59
2023/05/02 04:39:29;;;;;;;7.93;1.70;;;;;;;9.50;100.00;102030.19;5013870;28;20053;-52
2023/05/02 04:41:57;;;;;;;8.30;2.20;;;;;;;9.49;100.00;102031.13;5011860;28;20053;-53
2023/05/02 04:44:30;;;;;;;8.73;1.85;;;;;;;9.51;100.00;102039.78;5010204;28;20045;-54
2023/05/02 04:46:58;;;;;;;9.45;2.15;;;;;;;9.44;100.00;102054.91;5010142;28;20049;-54
2023/05/02 04:49:26;;;;;;;7.47;2.00;;;;;;;9.45;100.00;102048.75;5029113;28;20151;-54
2023/05/02 04:51:54;;;;;;;6.90;1.75;;;;;;;9.46;100.00;102055.72;5029126;28;20456;-53
2023/05/02 04:54:22;;;;;;;8.82;1.67;;;;;;;9.45;100.00;102061.06;5031644;28;20053;-54
2023/05/02 04:56:54;;;;;;;6.70;1.83;;;;;;;9.48;100.00;102055.66;5032310;28;20041;-53
2023/05/02 04:59:22;;;;;;;6.40;1.63;;;;;;;9.48;100.00;102072.25;5029782;28;20053;-54
2023/05/02 05:01:51;;;;;;;6.70;1.95;;;;;;;9.48;100.00;102071.41;5031051;28;20128;-54
2023/05/02 05:04:19;;;;;;;7.53;2.05;;;;;;;9.43;100.00;102076.00;5032087;28;20520;-51
2023/05/02 05:06:48;;;;;;;8.88;1.92;;;;;;;9.43;100.00;102083.88;5015315;28;20128;-54
2023/05/02 05:09:16;;;;;;;6.00;1.75;;;;;;;9.46;100.00;102084.63;5029221;28;20076;-53
2023/05/02 05:11:45;;;;;;;8.25;1.85;;;;;;;9.46;100.00;102089.88;5029392;28;20073;-53
2023/05/02 05:14:13;;;;;;;7.85;2.10;;;;;;;9.49;100.00;102094.16;5027063;28;20466;-53
2023/05/02 05:16:41;;;;;;;9.13;1.88;;;;;;;9.48;100.00;102092.44;5029455;28;20111;-54
2023/05/02 05:19:11;;;;;;;8.07;1.77;;;;;;;9.44;100.00;102096.09;5028471;28;20049;-51
2023/05/02 05:21:41;;;;;;;7.90;2.00;;;;;;;9.42;100.00;102100.53;5031760;28;20088;-59
2023/05/02 05:24:09;;;;;;;9.25;2.03;;;;;;;9.44;100.00;102107.44;5031766;28;20860;-60
2023/05/02 05:26:38;;;;;;;5.32;1.60;;;;;;;9.49;100.00;102115.16;5031902;28;20512;-60
2023/05/02 05:29:06;;;;;;;9.23;2.10;;;;;;;9.45;100.00;102121.44;5031741;28;20080;-60
2023/05/02 05:31:34;;;;;;;7.75;2.10;;;;;;;9.46;100.00;102126.63;5031627;28;20041;-59
2023/05/02 05:34:03;;;;;;;10.88;2.40;;;;;;;9.45;100.00;102126.69;5032776;28;20037;-59
2023/05/02 05:36:33;;;;;;;7.40;1.83;;;;;;;9.50;100.00;102132.59;5032554;28;20053;-59
2023/05/02 05:39:01;;;;;;;7.55;1.85;;;;;;;9.53;100.00;102135.13;5031654;28;20567;-59
2023/05/02 05:41:29;;;;;;;11.05;2.35;;;;;;;9.56;100.00;102134.16;5031564;28;20661;-59
2023/05/02 05:43:57;;;;;;;11.23;2.30;;;;;;;9.59;100.00;102142.72;5024990;28;20046;-59
2023/05/02 05:46:25;;;;;;;11.07;2.58;;;;;;;9.48;100.00;102155.44;5013622;28;20045;-60
2023/05/02 05:48:54;;;;;;;10.07;2.40;;;;;;;9.45;100.00;102155.56;5011976;28;20049;-59
2023/05/02 05:51:22;;;;;;;11.02;2.10;;;;;;;9.45;100.00;102155.56;5011860;28;20051;-53
2023/05/02 05:53:52;;;;;;;10.23;2.03;;;;;;;9.43;100.00;102155.63;5010354;28;20050;-59
2023/05/02 05:56:20;;;;;;;11.82;2.13;;;;;;;9.50;100.00;102163.25;5013058;28;20071;-59
2023/05/02 05:58:48;;;;;;;11.60;2.63;;;;;;;9.47;100.00;102164.25;5012236;28;20096;-52
2023/05/02 06:01:16;;;;;;;11.75;2.53;;;;;;;9.52;100.00;102178.03;5008990;28;20169;-52
2023/05/02 06:03:44;;;;;;;11.48;2.30;;;;;;;9.54;100.00;102178.81;5008867;28;20033;-53
2023/05/02 06:06:13;;;;;;;12.35;2.40;;;;;;;9.50;100.00;102193.00;5007380;28;20121;-54
2023/05/02 06:08:41;;;;;;;10.63;2.75;;;;;;;9.51;100.00;102197.34;5008703;28;20046;-54
2023/05/02 06:11:11;;;;;;;16.08;2.97;;;;;;;9.61;100.00;102203.09;5009059;28;20041;-52
2023/05/02 06:13:39;;;;;;;12.32;3.03;;;;;;;9.60;100.00;102201.41;5009589;28;20493;-52
2023/05/02 06:16:07;;;;;;;12.75;3.13;;;;;;;9.65;100.00;102202.03;5014306;28;20077;-54
2023/05/02 06:18:36;;;;;;;13.30;2.65;;;;;;;9.62;100.00;102216.16;5027325;28;20080;-54
2023/05/02 06:21:04;;;;;;;14.43;3.10;;;;;;;9.58;100.00;102217.19;5028778;28;20045;-53
2023/05/02 06:23:33;;;;;;;10.35;2.58;;;;;;;9.57;100.00;102212.88;5029711;28;20656;-53
2023/05/02 06:26:02;;;;;;;12.68;3.00;;;;;;;9.46;100.00;102225.53;5018398;28;20404;-53
2023/05/02 06:28:32;;;;;;;11.00;2.70;;;;;;;9.60;100.00;102214.53;5021693;28;20505;-52
2023/05/02 06:31:01;;;;;;;10.98;3.17;;;;;;;9.63;100.00;102233.63;5028338;28;20042;-51
2023/05/02 06:33:30;;;;;;;13.27;2.13;;;;;;;9.66;100.00;102229.19;5028646;28;20488;-51
2023/05/02 06:36:01;;;;;;;12.65;2.75;;;;;;;9.52;100.00;102246.34;5011227;28;20046;-53
2023/05/02 06:38:30;;;;;;;10.43;3.05;;;;;;;9.56;100.00;102254.97;5008630;28;20041;-51
2023/05/02 06:40:58;;;;;;;12.02;2.75;;;;;;;9.56;100.00;102260.22;5008609;28;20081;-51
2023/05/02 06:43:28;;;;;;;8.98;2.95;;;;;;;9.59;100.00;102260.09;5008855;28;20535;-51
2023/05/02 06:45:57;;;;;;;16.30;3.53;;;;;;;9.66;100.00;102258.94;5026672;28;20061;-52
2023/05/02 06:48:26;;;;;;;12.25;3.20;;;;;;;9.71;100.00;102261.41;5029005;28;20049;-51
2023/05/02 06:50:54;;;;;;;10.18;2.97;;;;;;;9.77;100.00;102267.22;5027146;28;20448;-52
2023/05/02 06:53:22;;;;;;;10.70;2.72;;;;;;;9.78;100.00;102276.84;5027970;28;20088;-52
2023/05/02 06:55:50;;;;;;;11.05;2.80;;;;;;;9.89;100.00;102279.03;5022050;28;20049;-54
2023/05/02 06:58:18;;;;;;;11.70;3.08;;;;;;;9.98;100.00;102275.22;5031345;28;20396;-52
2023/05/02 07:00:47;;;;;;;14.10;3.08;;;;;;;9.89;100.00;102275.56;5028328;28;20154;-54
2023/05/02 07:03:17;;;;;;;11.85;3.00;;;;;;;9.84;100.00;102282.78;5018556;28;20050;-49
2023/05/02 07:05:45;;;;;;;12.13;2.90;;;;;;;9.85;100.00;102285.34;5010994;28;20433;-52
2023/05/02 07:08:13;;;;;;;7.60;2.22;;;;;;;9.94;100.00;102294.66;5015007;28;20070;-53
2023/05/02 07:10:41;;;;;;;11.13;2.55;;;;;;;9.98;100.00;102299.72;5014265;28;20045;-54
2023/05/02 07:13:09;;;;;;;10.38;2.10;;;;;;;10.07;100.00;102297.63;5014989;28;20049;-52
2023/05/02 07:15:37;;;;;;;9.65;2.05;;;;;;;10.06;100.00;102303.81;5032944;28;20034;-52
2023/05/02 07:18:06;;;;;;;10.27;2.50;;;;;;;10.15;100.00;102309.53;5034885;28;20103;-51
2023/05/02 07:20:37;;;;;;;10.23;2.20;;;;;;;10.14;100.00;102306.97;5033128;28;20144;-54
2023/05/02 07:23:05;;;;;;;9.40;1.92;;;;;;;10.17;100.00;102311.25;5031015;28;20046;-54
2023/05/02 07:25:33;;;;;;;9.65;2.38;;;;;;;10.27;100.00;102313.47;5023562;28;20150;-60
2023/05/02 07:28:01;;;;;;;7.85;1.83;;;;;;;10.21;100.00;102315.47;5014547;28;20050;-60
2023/05/02 07:30:29;;;;;;;7.28;2.00;;;;;;;10.32;100.00;102319.41;5014812;28;20104;-60
2023/05/02 07:32:58;;;;;;;10.32;2.70;;;;;;;10.39;100.00;102321.78;5012873;28;20137;-60
2023/05/02 07:35:26;;;;;;;12.38;2.55;;;;;;;10.44;100.00;102323.34;5031149;28;20092;-60
2023/05/02 07:37:56;;;;;;;8.27;2.58;;;;;;;10.54;100.00;102323.81;5033487;28;20084;-60
2023/05/02 07:40:24;;;;;;;10.30;2.38;;;;;;;10.48;100.00;102330.19;5034196;28;20057;-60
2023/05/02 07:42:55;;;;;;;13.25;2.60;;;;;;;10.43;100.00;102332.16;5034902;28;20052;-60
2023/05/02 07:45:24;;;;;;;9.60;2.60;;;;;;;10.46;100.00;102336.44;5015959;28;20073;-54
2023/05/02 07:47:52;;;;;;;10.40;2.60;;;;;;;10.46;100.00;102339.06;5011128;28;20062;-53
2023/05/02 07:50:20;;;;;;;8.90;3.05;;;;;;;10.48;100.00;102338.09;5010181;28;20116;-52
2023/05/02 07:52:48;;;;;;;7.45;1.77;;;;;;;10.34;100.00;102340.38;5012891;28;20073;-52
2023/05/02 07:55:18;;;;;;;10.18;2.47;;;;;;;10.40;100.00;102344.56;5018502;28;20045;-52
2023/05/02 07:57:46;;;;;;;9.80;2.08;;;;;;;10.55;100.00;102350.97;5011682;28;20100;-56
2023/05/02 08:00:17;;;;;;;10.60;2.35;;;;;;;10.51;100.00;102350.22;5011431;28;20413;-54
2023/05/02 08:02:46;;;;;;;12.82;2.08;;;;;;;10.38;100.00;102362.19;5013051;28;20481;-53
2023/05/02 08:05:14;;;;;;;13.63;2.47;;;;;;;10.39;100.00;102361.25;5017591;28;20045;-53
2023/05/02 08:07:43;;;;;;;13.80;2.70;;;;;;;10.26;100.00;102364.34;5031975;28;20061;-60
2023/05/02 08:10:11;;;;;;;11.85;2.75;;;;;;;10.03;100.00;102367.88;5034250;28;20045;-60
2023/05/02 08:12:43;;;;;;;12.93;2.40;;;;;;;9.98;100.00;102370.69;5034594;28;20053;-60
2023/05/02 08:15:14;;;;;;;9.10;2.67;;;;;;;9.90;100.00;102372.75;5032276;28;20053;-60
2023/05/02 08:17:43;;;;;;;8.73;2.22;;;;;;;9.84;100.00;102372.97;5033327;28;20115;-60
2023/05/02 08:20:11;;;;;;;7.85;2.33;;;;;;;9.82;100.00;102385.31;5032538;28;20125;-60
2023/05/02 08:22:39;;;;;;;9.60;2.22;;;;;;;9.71;100.00;102379.63;5033117;28;20144;-60
2023/05/02 08:25:08;;;;;;;8.43;1.75;;;;;;;9.89;100.00;102386.78;5033120;28;20569;-60
2023/05/02 08:27:36;;;;;;;7.53;2.10;;;;;;;9.91;100.00;102394.63;5033745;28;20073;-60
2023/05/02 08:30:07;;;;;;;10.10;2.00;;;;;;;9.96;100.00;102393.53;5026179;28;20054;-60
2023/05/02 08:32:36;;;;;;;7.15;1.88;;;;;;;9.95;100.00;102401.47;5019276;28;20128;-60
2023/05/02 08:35:05;;;;;;;7.97;2.25;;;;;;;10.08;100.00;102394.84;5013177;28;20045;-60
2023/05/02 08:37:33;;;;;;;7.63;1.88;;;;;;;10.25;100.00;102399.47;5013283;28;20060;-60
2023/05/02 08:40:02;;;;;;;7.45;1.70;;;;;;;10.54;100.00;102399.22;5021098;28;20392;-60
2023/05/02 08:42:33;;;;;;;6.88;1.90;;;;;;;10.81;100.00;102397.25;5033863;28;20148;-60
2023/05/02 08:45:02;;;;;;;8.05;2.40;;;;;;;11.05;100.00;102408.53;5033432;28;20495;-60
2023/05/02 08:47:32;;;;;;;5.32;1.52;;;;;;;11.23;100.00;102406.88;5033110;28;20107;-60
2023/05/02 08:50:01;;;;;;;4.45;2.00;;;;;;;11.31;100.00;102410.03;5029169;28;20440;-59
2023/05/02 08:52:31;;;;;;;6.55;1.55;;;;;;;11.61;100.00;102404.34;5012887;28;20054;-60
2023/05/02 08:55:01;;;;;;;7.78;1.70;;;;;;;11.66;100.00;102417.34;5013357;28;20516;-60
2023/05/02 08:57:32;;;;;;;6.45;1.50;;;;;;;11.58;100.00;102399.22;5012950;28;20045;-61
2023/05/02 09:00:00;;;;;;;5.50;1.40;;;;;;;11.83;100.00;102411.28;5019582;28;20053;-61
2023/05/02 09:02:45;;;;;;;5.07;1.42;;;;;;;11.90;100.00;102409.22;5032574;28;20045;-61
2023/05/02 09:05:19;;;;;;;7.78;1.60;;;;;;;11.94;100.00;102408.16;5032563;28;20045;-61
2023/05/02 09:07:49;;;;;;;6.45;1.40;;;;;;;12.08;95.73;102411.06;5032278;28;20525;-61
2023/05/02 09:10:17;;;;;;;4.35;1.40;;;;;;;12.23;92.87;102416.50;5028898;28;20046;-61
2023/05/02 09:12:45;;;;;;;5.30;1.20;;;;;;;12.13;89.83;102426.66;5018163;28;20493;-61
2023/05/02 09:15:15;;;;;;;4.90;1.50;;;;;;;12.12;92.50;102422.28;5012875;28;20053;-61
2023/05/02 09:17:49;;;;;;;5.13;1.48;;;;;;;12.03;87.03;102433.28;5013232;28;20058;-62
2023/05/02 09:20:17;;;;;;;6.35;1.52;;;;;;;12.16;87.74;102432.66;5017216;28;20069;-61
2023/05/02 09:22:50;;;;;;;7.47;1.92;;;;;;;12.49;87.64;102434.59;5031421;28;20046;-61
2023/05/02 09:25:19;;;;;;;5.53;1.50;;;;;;;12.50;87.07;102440.72;5032432;28;20069;-61
2023/05/02 09:27:55;;;;;;;4.88;1.38;;;;;;;12.59;83.95;102440.28;5031375;28;20412;-61
2023/05/02 09:30:24;;;;;;;7.10;1.90;;;;;;;12.59;84.39;102440.28;5029853;28;20668;-61
2023/05/02 09:32:54;;;;;;;5.63;1.60;;;;;;;12.74;79.76;102451.06;5017808;28;20103;-61
2023/05/02 09:35:23;;;;;;;5.75;1.65;;;;;;;12.82;79.67;102446.25;5032265;28;20051;-61
2023/05/02 09:37:53;;;;;;;6.53;1.83;;;;;;;12.91;77.18;102443.16;5032272;28;20449;-61
2023/05/02 09:40:22;;;;;;;5.97;2.00;;;;;;;13.04;77.01;102439.91;5032324;28;20099;-60
2023/05/02 09:42:50;;;;;;;5.30;1.77;;;;;;;13.22;79.67;102452.16;5020476;28;20042;-60
2023/05/02 09:45:22;;;;;;;7.93;1.50;;;;;;;13.15;74.51;102448.97;5012405;28;20501;-60
2023/05/02 09:47:51;;;;;;;6.78;1.70;;;;;;;13.50;72.60;102448.16;5012477;28;20053;-61
2023/05/02 09:50:39;;;;;;;6.10;1.70;;;;;;;13.44;71.78;102453.75;5011803;28;20104;-60
2023/05/02 09:53:10;;;;;;;8.57;1.80;;;;;;;13.48;71.83;102460.56;5021871;28;20436;-60
2023/05/02 09:55:38;;;;;;;7.10;1.80;;;;;;;13.48;69.48;102460.56;5032033;28;20038;-61
2023/05/02 09:58:06;;;;;;;5.18;1.38;;;;;;;13.49;65.45;102459.66;5032048;28;20045;-61
2023/05/02 10:00:42;;;;;;;6.35;1.45;;;;;;;14.06;67.71;102458.41;5033144;28;20428;-60
2023/05/02 10:03:17;;;;;;;5.43;1.38;;;;;;;14.39;65.45;102452.22;5029803;28;20044;-60
2023/05/02 10:05:47;;;;;;;4.25;1.30;;;;;;;14.73;63.74;102453.00;5028840;28;20128;-61
2023/05/02 10:08:18;;;;;;;8.63;1.50;;;;;;;15.28;60.50;102435.66;5023587;28;20057;-60
2023/05/02 10:10:51;;;;;;;9.75;1.88;;;;;;;15.70;61.45;102437.47;5011353;28;20056;-61
2023/05/02 10:13:21;;;;;;;8.13;1.70;;;;;;;15.58;57.18;102446.19;5012357;28;20450;-60
2023/05/02 10:15:55;;;;;;;5.18;1.40;;;;;;;15.26;56.54;102445.50;5011997;28;20042;-60
2023/05/02 10:18:28;;;;;;;5.32;1.40;;;;;;;15.57;57.93;102448.94;5012621;28;20093;-61
2023/05/02 10:21:00;;;;;;;8.50;1.70;;;;;;;15.53;54.22;102456.25;5011287;28;20092;-61
2023/05/02 10:23:29;;;;;;;4.55;1.60;;;;;;;15.43;52.48;102455.91;5015963;28;20041;-55
2023/05/02 10:25:59;;;;;;;7.22;1.13;;;;;;;15.04;53.08;102457.38;5014382;28;20173;-54
2023/05/02 10:28:27;;;;;;;6.88;1.60;;;;;;;15.31;54.77;102454.00;5012252;28;20042;-55
2023/05/02 10:30:57;;;;;;;7.82;1.48;;;;;;;15.80;52.83;102450.19;5011282;28;20065;-56
2023/05/02 10:33:25;;;;;;;5.60;1.50;;;;;;;16.22;50.63;102444.00;5010608;28;20049;-55
2023/05/02 10:35:54;;;;;;;4.65;1.25;;;;;;;15.98;49.08;102453.50;5016597;28;20049;-61
2023/05/02 10:38:24;;;;;;;7.80;1.80;;;;;;;15.89;49.78;102450.47;5010840;28;20136;-62
2023/05/02 10:40:56;;;;;;;6.22;1.65;;;;;;;16.14;49.93;102451.63;5015665;28;20497;-62
2023/05/02 10:43:26;;;;;;;4.95;1.60;;;;;;;15.98;51.00;102453.50;5020856;28;20152;-55
2023/05/02 10:45:55;;;;;;;7.07;1.67;;;;;;;16.41;51.99;102450.78;5032775;28;20037;-56
2023/05/02 10:48:26;;;;;;;6.22;1.70;;;;;;;15.96;50.48;102455.41;5032872;28;20131;-55
2023/05/02 10:50:56;;;;;;;4.13;1.33;;;;;;;15.71;49.85;102456.91;5034270;28;20107;-55
2023/05/02 10:53:28;;;;;;;5.70;1.55;;;;;;;15.99;50.13;102452.56;5029321;28;20120;-53
2023/05/02 10:56:12;;;;;;;5.70;1.45;;;;;;;15.75;49.65;102461.06;5012212;28;20501;-55
2023/05/02 10:58:41;;;;;;;7.60;1.60;;;;;;;16.30;50.58;102456.78;5014084;28;20126;-54
2023/05/02 11:01:35;;;;;;;6.82;1.55;;;;;;;16.79;46.65;102459.84;5015362;28;20042;-55
2023/05/02 11:04:05;;;;;;;4.07;1.30;;;;;;;17.01;45.82;102454.81;5017349;28;20065;-53
2023/05/02 11:06:34;;;;;;;7.35;1.73;;;;;;;17.00;46.31;102460.25;5012578;28;20509;-55
2023/05/02 11:09:33;;;;;;;3.58;1.40;;;;;;;17.60;47.53;102453.53;5012032;28;20072;-53
2023/05/02 11:12:03;;;;;;;5.65;2.10;;;;;;;17.70;45.89;102459.88;5012484;28;20076;-53
2023/05/02 11:14:48;;;;;;;8.80;2.10;;;;;;;17.84;44.97;102460.72;5017586;28;20045;-53
2023/05/02 11:17:17;;;;;;;6.53;1.70;;;;;;;17.51;44.93;102459.47;5013433;28;20061;-60
2023/05/02 11:20:28;;;;;;;5.43;1.58;;;;;;;17.52;45.05;102459.38;5014866;28;20161;-60
2023/05/02 11:22:59;;;;;;;5.68;1.73;;;;;;;18.29;43.20;102455.75;5014147;28;20077;-61
2023/05/02 11:25:36;;;;;;;6.80;1.90;;;;;;;18.58;43.62;102450.97;5026503;28;20449;-61
2023/05/02 11:28:07;;;;;;;7.20;2.13;;;;;;;18.41;40.30;102454.84;5035009;28;20041;-60
2023/05/02 11:30:40;;;;;;;4.47;1.50;;;;;;;18.32;39.04;102449.38;5035139;28;20042;-61
2023/05/02 11:33:15;;;;;;;6.63;1.73;;;;;;;18.55;40.78;102445.84;5034949;28;20053;-61